sensor_id;sensor_type;location;lat;lon;timestamp;P1;durP1;ratioP1;P2;durP2;ratioP2
25657;SDS011;13517;59.320;18.042;2023-03-13T00:01:57;3.03;;;1.35;;
25657;SDS011;13517;59.320;18.042;2023-03-13T00:04:23;3.10;;;0.93;;
25657;SDS011;13517;59.320;18.042;2023-03-13T00:06:48;1.70;;;0.90;;
25657;SDS011;13517;59.320;18.042;2023-03-13T00:09:15;5.88;;;1.30;;
25657;SDS011;13517;59.320;18.042;2023-03-13T00:11:41;6.90;;;1.27;;
25657;SDS011;13517;59.320;18.042;2023-03-13T00:14:07;3.80;;;1.00;;
25657;SDS011;13517;59.320;18.042;2023-03-13T00:16:33;4.90;;;1.25;;
25657;SDS011;13517;59.320;18.042;2023-03-13T00:18:59;2.22;;;1.00;;
25657;SDS011;13517;59.320;18.042;2023-03-13T00:21:25;4.28;;;1.02;;
25657;SDS011;13517;59.320;18.042;2023-03-13T00:23:52;2.35;;;1.10;;
25657;SDS011;13517;59.320;18.042;2023-03-13T00:26:19;10.57;;;1.90;;
25657;SDS011;13517;59.320;18.042;2023-03-13T00:28:47;4.95;;;1.40;;
25657;SDS011;13517;59.320;18.042;2023-03-13T00:33:48;1.50;;;0.90;;
25657;SDS011;13517;59.320;18.042;2023-03-13T00:36:17;4.65;;;1.05;;
25657;SDS011;13517;59.320;18.042;2023-03-13T00:38:47;2.20;;;0.95;;
25657;SDS011;13517;59.320;18.042;2023-03-13T00:41:16;2.60;;;1.00;;
25657;SDS011;13517;59.320;18.042;2023-03-13T00:43:43;1.98;;;1.00;;
25657;SDS011;13517;59.320;18.042;2023-03-13T00:46:10;4.10;;;1.00;;
25657;SDS011;13517;59.320;18.042;2023-03-13T00:48:36;3.10;;;1.00;;
25657;SDS011;13517;59.320;18.042;2023-03-13T00:51:01;3.00;;;1.17;;
25657;SDS011;13517;59.320;18.042;2023-03-13T00:53:28;6.75;;;1.98;;
25657;SDS011;13517;59.320;18.042;2023-03-13T00:58:24;3.65;;;1.17;;
25657;SDS011;13517;59.320;18.042;2023-03-13T01:00:51;1.90;;;1.60;;
25657;SDS011;13517;59.320;18.042;2023-03-13T01:03:17;5.18;;;1.35;;
25657;SDS011;13517;59.320;18.042;2023-03-13T01:05:43;4.97;;;1.40;;
25657;SDS011;13517;59.320;18.042;2023-03-13T01:08:08;2.03;;;1.02;;
25657;SDS011;13517;59.320;18.042;2023-03-13T01:10:34;4.00;;;1.40;;
25657;SDS011;13517;59.320;18.042;2023-03-13T01:12:59;7.72;;;1.27;;
25657;SDS011;13517;59.320;18.042;2023-03-13T01:15:25;4.75;;;1.13;;
25657;SDS011;13517;59.320;18.042;2023-03-13T01:17:51;3.58;;;1.00;;
25657;SDS011;13517;59.320;18.042;2023-03-13T01:20:16;3.92;;;1.30;;
25657;SDS011;13517;59.320;18.042;2023-03-13T01:22:42;2.28;;;1.50;;
25657;SDS011;13517;59.320;18.042;2023-03-13T01:25:07;4.70;;;1.25;;
25657;SDS011;13517;59.320;18.042;2023-03-13T01:27:32;6.38;;;1.45;;
25657;SDS011;13517;59.320;18.042;2023-03-13T01:29:58;1.45;;;1.05;;
25657;SDS011;13517;59.320;18.042;2023-03-13T01:32:23;6.25;;;1.30;;
25657;SDS011;13517;59.320;18.042;2023-03-13T01:34:49;1.98;;;1.15;;
25657;SDS011;13517;59.320;18.042;2023-03-13T01:37:14;3.85;;;1.35;;
25657;SDS011;13517;59.320;18.042;2023-03-13T01:39:39;3.35;;;1.02;;
25657;SDS011;13517;59.320;18.042;2023-03-13T01:42:05;5.32;;;1.27;;
25657;SDS011;13517;59.320;18.042;2023-03-13T01:47:21;2.97;;;1.20;;
25657;SDS011;13517;59.320;18.042;2023-03-13T01:49:47;1.92;;;1.30;;
25657;SDS011;13517;59.320;18.042;2023-03-13T01:52:16;7.10;;;1.20;;
25657;SDS011;13517;59.320;18.042;2023-03-13T01:57:18;4.53;;;1.83;;
25657;SDS011;13517;59.320;18.042;2023-03-13T02:00:07;9.88;;;1.60;;
25657;SDS011;13517;59.320;18.042;2023-03-13T02:02:37;4.95;;;1.77;;
25657;SDS011;13517;59.320;18.042;2023-03-13T02:05:06;6.13;;;1.55;;
25657;SDS011;13517;59.320;18.042;2023-03-13T02:07:38;5.28;;;1.50;;
25657;SDS011;13517;59.320;18.042;2023-03-13T02:10:08;3.10;;;1.23;;
25657;SDS011;13517;59.320;18.042;2023-03-13T02:12:38;7.90;;;1.60;;
25657;SDS011;13517;59.320;18.042;2023-03-13T02:15:25;14.13;;;1.95;;
25657;SDS011;13517;59.320;18.042;2023-03-13T02:17:50;2.67;;;1.50;;
25657;SDS011;13517;59.320;18.042;2023-03-13T02:20:17;4.70;;;1.60;;
25657;SDS011;13517;59.320;18.042;2023-03-13T02:25:41;3.47;;;1.65;;
25657;SDS011;13517;59.320;18.042;2023-03-13T02:28:18;4.10;;;1.75;;
25657;SDS011;13517;59.320;18.042;2023-03-13T02:30:48;5.78;;;1.83;;
25657;SDS011;13517;59.320;18.042;2023-03-13T02:33:15;3.22;;;1.08;;
25657;SDS011;13517;59.320;18.042;2023-03-13T02:35:43;5.18;;;1.40;;
25657;SDS011;13517;59.320;18.042;2023-03-13T02:38:11;3.15;;;1.40;;
25657;SDS011;13517;59.320;18.042;2023-03-13T02:40:41;4.07;;;2.03;;
25657;SDS011;13517;59.320;18.042;2023-03-13T02:43:14;4.97;;;1.60;;
25657;SDS011;13517;59.320;18.042;2023-03-13T02:45:59;1.92;;;1.40;;
25657;SDS011;13517;59.320;18.042;2023-03-13T02:48:32;6.78;;;1.77;;
25657;SDS011;13517;59.320;18.042;2023-03-13T02:51:01;5.22;;;1.63;;
25657;SDS011;13517;59.320;18.042;2023-03-13T02:53:30;2.88;;;1.60;;
25657;SDS011;13517;59.320;18.042;2023-03-13T02:55:57;3.95;;;1.58;;
25657;SDS011;13517;59.320;18.042;2023-03-13T02:58:23;3.58;;;1.50;;
25657;SDS011;13517;59.320;18.042;2023-03-13T03:00:50;1.50;;;1.13;;
25657;SDS011;13517;59.320;18.042;2023-03-13T03:03:16;3.15;;;1.27;;
25657;SDS011;13517;59.320;18.042;2023-03-13T03:05:41;2.92;;;1.38;;
25657;SDS011;13517;59.320;18.042;2023-03-13T03:08:07;2.53;;;1.23;;
25657;SDS011;13517;59.320;18.042;2023-03-13T03:10:34;7.80;;;1.40;;
25657;SDS011;13517;59.320;18.042;2023-03-13T03:13:00;4.70;;;1.17;;
25657;SDS011;13517;59.320;18.042;2023-03-13T03:15:26;4.15;;;1.17;;
25657;SDS011;13517;59.320;18.042;2023-03-13T03:17:52;2.40;;;1.17;;
25657;SDS011;13517;59.320;18.042;2023-03-13T03:20:17;3.35;;;1.20;;
25657;SDS011;13517;59.320;18.042;2023-03-13T03:22:42;6.18;;;1.20;;
25657;SDS011;13517;59.320;18.042;2023-03-13T03:25:08;2.33;;;1.10;;
25657;SDS011;13517;59.320;18.042;2023-03-13T03:27:34;3.92;;;1.20;;
25657;SDS011;13517;59.320;18.042;2023-03-13T03:30:00;1.73;;;1.10;;
25657;SDS011;13517;59.320;18.042;2023-03-13T03:32:26;4.15;;;1.00;;
25657;SDS011;13517;59.320;18.042;2023-03-13T03:34:51;4.63;;;1.10;;
25657;SDS011;13517;59.320;18.042;2023-03-13T03:37:17;2.63;;;1.20;;
25657;SDS011;13517;59.320;18.042;2023-03-13T03:39:42;3.45;;;1.15;;
25657;SDS011;13517;59.320;18.042;2023-03-13T03:42:08;3.17;;;1.40;;
25657;SDS011;13517;59.320;18.042;2023-03-13T03:44:33;2.13;;;1.20;;
25657;SDS011;13517;59.320;18.042;2023-03-13T03:46:59;4.43;;;1.00;;
25657;SDS011;13517;59.320;18.042;2023-03-13T03:49:24;2.15;;;1.02;;
25657;SDS011;13517;59.320;18.042;2023-03-13T03:51:50;1.83;;;1.10;;
25657;SDS011;13517;59.320;18.042;2023-03-13T03:54:15;2.50;;;1.13;;
25657;SDS011;13517;59.320;18.042;2023-03-13T03:56:41;3.92;;;1.30;;
25657;SDS011;13517;59.320;18.042;2023-03-13T03:59:06;3.17;;;1.67;;
25657;SDS011;13517;59.320;18.042;2023-03-13T04:01:31;2.00;;;1.10;;
25657;SDS011;13517;59.320;18.042;2023-03-13T04:03:57;4.82;;;1.20;;
25657;SDS011;13517;59.320;18.042;2023-03-13T04:06:22;1.65;;;1.08;;
25657;SDS011;13517;59.320;18.042;2023-03-13T04:08:48;1.55;;;1.10;;
25657;SDS011;13517;59.320;18.042;2023-03-13T04:11:13;3.88;;;0.90;;
25657;SDS011;13517;59.320;18.042;2023-03-13T04:13:38;3.35;;;1.50;;
25657;SDS011;13517;59.320;18.042;2023-03-13T04:16:07;2.35;;;1.23;;
25657;SDS011;13517;59.320;18.042;2023-03-13T04:18:33;2.97;;;1.50;;
25657;SDS011;13517;59.320;18.042;2023-03-13T04:21:02;1.58;;;0.90;;
25657;SDS011;13517;59.320;18.042;2023-03-13T04:23:30;2.38;;;1.00;;
25657;SDS011;13517;59.320;18.042;2023-03-13T04:25:55;4.10;;;1.20;;
25657;SDS011;13517;59.320;18.042;2023-03-13T04:28:21;7.82;;;1.33;;
25657;SDS011;13517;59.320;18.042;2023-03-13T04:30:46;2.15;;;1.40;;
25657;SDS011;13517;59.320;18.042;2023-03-13T04:33:12;2.95;;;0.90;;
25657;SDS011;13517;59.320;18.042;2023-03-13T04:35:37;6.88;;;1.10;;
25657;SDS011;13517;59.320;18.042;2023-03-13T04:38:02;2.72;;;1.13;;
25657;SDS011;13517;59.320;18.042;2023-03-13T04:40:28;2.03;;;1.15;;
25657;SDS011;13517;59.320;18.042;2023-03-13T04:42:53;1.70;;;1.10;;
25657;SDS011;13517;59.320;18.042;2023-03-13T04:45:19;8.30;;;1.20;;
25657;SDS011;13517;59.320;18.042;2023-03-13T04:47:47;1.45;;;1.00;;
25657;SDS011;13517;59.320;18.042;2023-03-13T04:50:12;2.35;;;1.20;;
25657;SDS011;13517;59.320;18.042;2023-03-13T04:52:38;5.70;;;1.27;;
25657;SDS011;13517;59.320;18.042;2023-03-13T04:55:03;2.15;;;1.63;;
25657;SDS011;13517;59.320;18.042;2023-03-13T04:57:29;5.72;;;1.13;;
25657;SDS011;13517;59.320;18.042;2023-03-13T04:59:55;2.97;;;1.27;;
25657;SDS011;13517;59.320;18.042;2023-03-13T05:02:20;2.28;;;1.35;;
25657;SDS011;13517;59.320;18.042;2023-03-13T05:04:46;7.93;;;1.15;;
25657;SDS011;13517;59.320;18.042;2023-03-13T05:07:11;4.25;;;1.30;;
25657;SDS011;13517;59.320;18.042;2023-03-13T05:09:36;4.50;;;1.30;;
25657;SDS011;13517;59.320;18.042;2023-03-13T05:12:02;2.33;;;1.10;;
25657;SDS011;13517;59.320;18.042;2023-03-13T05:14:27;7.55;;;1.60;;
25657;SDS011;13517;59.320;18.042;2023-03-13T05:16:53;6.50;;;1.27;;
25657;SDS011;13517;59.320;18.042;2023-03-13T05:19:18;2.70;;;1.52;;
25657;SDS011;13517;59.320;18.042;2023-03-13T05:21:44;3.08;;;1.48;;
25657;SDS011;13517;59.320;18.042;2023-03-13T05:24:09;5.97;;;1.27;;
25657;SDS011;13517;59.320;18.042;2023-03-13T05:26:35;2.72;;;1.27;;
25657;SDS011;13517;59.320;18.042;2023-03-13T05:29:00;5.45;;;1.58;;
25657;SDS011;13517;59.320;18.042;2023-03-13T05:31:25;13.40;;;1.60;;
25657;SDS011;13517;59.320;18.042;2023-03-13T05:33:51;9.13;;;1.15;;
25657;SDS011;13517;59.320;18.042;2023-03-13T05:36:17;6.95;;;1.10;;
25657;SDS011;13517;59.320;18.042;2023-03-13T05:38:42;3.28;;;1.20;;
25657;SDS011;13517;59.320;18.042;2023-03-13T05:41:07;4.97;;;1.50;;
25657;SDS011;13517;59.320;18.042;2023-03-13T05:43:33;2.80;;;1.17;;
25657;SDS011;13517;59.320;18.042;2023-03-13T05:45:58;9.30;;;1.40;;
25657;SDS011;13517;59.320;18.042;2023-03-13T05:48:24;2.25;;;1.20;;
25657;SDS011;13517;59.320;18.042;2023-03-13T05:50:49;3.60;;;0.93;;
25657;SDS011;13517;59.320;18.042;2023-03-13T05:53:14;3.15;;;1.70;;
25657;SDS011;13517;59.320;18.042;2023-03-13T05:55:41;4.03;;;1.33;;
25657;SDS011;13517;59.320;18.042;2023-03-13T05:58:06;11.15;;;1.63;;
25657;SDS011;13517;59.320;18.042;2023-03-13T06:00:32;1.25;;;1.15;;
25657;SDS011;13517;59.320;18.042;2023-03-13T06:02:57;4.20;;;1.23;;
25657;SDS011;13517;59.320;18.042;2023-03-13T06:05:23;2.30;;;1.30;;
25657;SDS011;13517;59.320;18.042;2023-03-13T06:07:48;3.35;;;1.20;;
25657;SDS011;13517;59.320;18.042;2023-03-13T06:10:14;6.10;;;1.05;;
25657;SDS011;13517;59.320;18.042;2023-03-13T06:12:40;12.02;;;1.15;;
25657;SDS011;13517;59.320;18.042;2023-03-13T06:15:06;2.80;;;1.05;;
25657;SDS011;13517;59.320;18.042;2023-03-13T06:17:33;2.20;;;1.00;;
25657;SDS011;13517;59.320;18.042;2023-03-13T06:19:59;6.75;;;1.38;;
25657;SDS011;13517;59.320;18.042;2023-03-13T06:22:24;3.25;;;1.15;;
25657;SDS011;13517;59.320;18.042;2023-03-13T06:24:49;2.55;;;2.17;;
25657;SDS011;13517;59.320;18.042;2023-03-13T06:27:15;4.80;;;1.23;;
25657;SDS011;13517;59.320;18.042;2023-03-13T06:29:41;3.03;;;1.13;;
25657;SDS011;13517;59.320;18.042;2023-03-13T06:32:06;2.35;;;1.05;;
25657;SDS011;13517;59.320;18.042;2023-03-13T06:34:32;2.63;;;1.30;;
25657;SDS011;13517;59.320;18.042;2023-03-13T06:36:58;9.00;;;1.58;;
25657;SDS011;13517;59.320;18.042;2023-03-13T06:39:24;5.10;;;1.30;;
25657;SDS011;13517;59.320;18.042;2023-03-13T06:41:50;12.10;;;1.30;;
25657;SDS011;13517;59.320;18.042;2023-03-13T06:44:15;4.72;;;1.20;;
25657;SDS011;13517;59.320;18.042;2023-03-13T06:46:41;5.50;;;1.27;;
25657;SDS011;13517;59.320;18.042;2023-03-13T06:49:06;23.08;;;2.78;;
25657;SDS011;13517;59.320;18.042;2023-03-13T06:51:32;4.45;;;1.00;;
25657;SDS011;13517;59.320;18.042;2023-03-13T06:53:58;6.88;;;1.40;;
25657;SDS011;13517;59.320;18.042;2023-03-13T06:56:23;2.85;;;1.23;;
25657;SDS011;13517;59.320;18.042;2023-03-13T06:58:49;1.20;;;0.98;;
25657;SDS011;13517;59.320;18.042;2023-03-13T07:01:15;3.80;;;1.30;;
25657;SDS011;13517;59.320;18.042;2023-03-13T07:03:41;4.25;;;1.20;;
25657;SDS011;13517;59.320;18.042;2023-03-13T07:06:08;8.02;;;1.15;;
25657;SDS011;13517;59.320;18.042;2023-03-13T07:08:35;2.00;;;1.00;;
25657;SDS011;13517;59.320;18.042;2023-03-13T07:11:02;2.63;;;1.30;;
25657;SDS011;13517;59.320;18.042;2023-03-13T07:13:32;4.75;;;1.10;;
25657;SDS011;13517;59.320;18.042;2023-03-13T07:15:59;4.15;;;1.10;;
25657;SDS011;13517;59.320;18.042;2023-03-13T07:18:25;6.28;;;1.20;;
25657;SDS011;13517;59.320;18.042;2023-03-13T07:20:51;9.50;;;1.05;;
25657;SDS011;13517;59.320;18.042;2023-03-13T07:23:19;9.48;;;1.40;;
25657;SDS011;13517;59.320;18.042;2023-03-13T07:25:51;5.97;;;2.00;;
25657;SDS011;13517;59.320;18.042;2023-03-13T07:28:20;4.30;;;1.00;;
25657;SDS011;13517;59.320;18.042;2023-03-13T07:30:46;2.28;;;1.10;;
25657;SDS011;13517;59.320;18.042;2023-03-13T07:33:11;6.97;;;1.33;;
25657;SDS011;13517;59.320;18.042;2023-03-13T07:35:37;5.38;;;0.95;;
25657;SDS011;13517;59.320;18.042;2023-03-13T07:38:03;11.10;;;1.15;;
25657;SDS011;13517;59.320;18.042;2023-03-13T07:40:28;2.45;;;1.13;;
25657;SDS011;13517;59.320;18.042;2023-03-13T07:42:54;2.65;;;1.30;;
25657;SDS011;13517;59.320;18.042;2023-03-13T07:45:19;5.57;;;1.30;;
25657;SDS011;13517;59.320;18.042;2023-03-13T07:47:45;1.70;;;1.02;;
25657;SDS011;13517;59.320;18.042;2023-03-13T07:50:10;6.75;;;1.42;;
25657;SDS011;13517;59.320;18.042;2023-03-13T07:52:36;6.95;;;1.25;;
25657;SDS011;13517;59.320;18.042;2023-03-13T07:55:01;6.03;;;1.25;;
25657;SDS011;13517;59.320;18.042;2023-03-13T07:57:27;4.13;;;1.30;;
25657;SDS011;13517;59.320;18.042;2023-03-13T07:59:53;11.63;;;1.35;;
25657;SDS011;13517;59.320;18.042;2023-03-13T08:02:19;8.63;;;0.93;;
25657;SDS011;13517;59.320;18.042;2023-03-13T08:04:44;6.88;;;1.15;;
25657;SDS011;13517;59.320;18.042;2023-03-13T08:07:10;4.63;;;0.90;;
25657;SDS011;13517;59.320;18.042;2023-03-13T08:09:36;4.80;;;1.60;;
25657;SDS011;13517;59.320;18.042;2023-03-13T08:12:02;4.50;;;1.20;;
25657;SDS011;13517;59.320;18.042;2023-03-13T08:14:27;6.78;;;0.82;;
25657;SDS011;13517;59.320;18.042;2023-03-13T08:16:53;19.77;;;1.65;;
25657;SDS011;13517;59.320;18.042;2023-03-13T08:19:18;4.72;;;1.02;;
25657;SDS011;13517;59.320;18.042;2023-03-13T08:21:44;7.15;;;1.50;;
25657;SDS011;13517;59.320;18.042;2023-03-13T08:24:09;11.70;;;1.30;;
25657;SDS011;13517;59.320;18.042;2023-03-13T08:26:37;1.52;;;1.02;;
25657;SDS011;13517;59.320;18.042;2023-03-13T08:29:06;5.72;;;1.10;;
25657;SDS011;13517;59.320;18.042;2023-03-13T08:31:34;4.88;;;1.30;;
25657;SDS011;13517;59.320;18.042;2023-03-13T08:34:07;6.43;;;1.23;;
25657;SDS011;13517;59.320;18.042;2023-03-13T08:36:33;8.32;;;1.67;;
25657;SDS011;13517;59.320;18.042;2023-03-13T08:39:02;6.03;;;2.08;;
25657;SDS011;13517;59.320;18.042;2023-03-13T08:41:46;12.73;;;1.40;;
25657;SDS011;13517;59.320;18.042;2023-03-13T08:44:12;8.27;;;1.20;;
25657;SDS011;13517;59.320;18.042;2023-03-13T08:46:39;6.15;;;1.83;;
25657;SDS011;13517;59.320;18.042;2023-03-13T08:49:06;7.28;;;1.65;;
25657;SDS011;13517;59.320;18.042;2023-03-13T08:51:32;8.70;;;1.35;;
25657;SDS011;13517;59.320;18.042;2023-03-13T08:53:59;4.63;;;1.55;;
25657;SDS011;13517;59.320;18.042;2023-03-13T08:56:26;4.57;;;1.33;;
25657;SDS011;13517;59.320;18.042;2023-03-13T08:58:55;7.80;;;1.52;;
25657;SDS011;13517;59.320;18.042;2023-03-13T09:01:23;4.57;;;1.38;;
25657;SDS011;13517;59.320;18.042;2023-03-13T09:03:50;4.97;;;1.70;;
25657;SDS011;13517;59.320;18.042;2023-03-13T09:06:16;7.30;;;1.70;;
25657;SDS011;13517;59.320;18.042;2023-03-13T09:08:42;8.02;;;1.73;;
25657;SDS011;13517;59.320;18.042;2023-03-13T09:11:09;4.18;;;1.50;;
25657;SDS011;13517;59.320;18.042;2023-03-13T09:13:37;3.90;;;1.48;;
25657;SDS011;13517;59.320;18.042;2023-03-13T09:16:09;6.30;;;1.88;;
25657;SDS011;13517;59.320;18.042;2023-03-13T09:18:36;5.20;;;1.55;;
25657;SDS011;13517;59.320;18.042;2023-03-13T09:21:04;5.75;;;1.60;;
25657;SDS011;13517;59.320;18.042;2023-03-13T09:23:32;12.15;;;2.00;;
25657;SDS011;13517;59.320;18.042;2023-03-13T09:25:57;2.80;;;1.60;;
25657;SDS011;13517;59.320;18.042;2023-03-13T09:28:23;4.82;;;1.70;;
25657;SDS011;13517;59.320;18.042;2023-03-13T09:30:50;10.25;;;2.45;;
25657;SDS011;13517;59.320;18.042;2023-03-13T09:33:17;5.18;;;1.90;;
25657;SDS011;13517;59.320;18.042;2023-03-13T09:35:43;4.57;;;1.50;;
25657;SDS011;13517;59.320;18.042;2023-03-13T09:38:14;9.32;;;1.75;;
25657;SDS011;13517;59.320;18.042;2023-03-13T09:40:44;7.47;;;1.40;;
25657;SDS011;13517;59.320;18.042;2023-03-13T09:43:24;4.88;;;1.70;;
25657;SDS011;13517;59.320;18.042;2023-03-13T09:45:55;5.53;;;1.90;;
25657;SDS011;13517;59.320;18.042;2023-03-13T09:48:32;4.32;;;1.48;;
25657;SDS011;13517;59.320;18.042;2023-03-13T09:51:07;3.38;;;1.48;;
25657;SDS011;13517;59.320;18.042;2023-03-13T09:53:41;6.60;;;1.83;;
25657;SDS011;13517;59.320;18.042;2023-03-13T09:56:14;4.45;;;1.40;;
25657;SDS011;13517;59.320;18.042;2023-03-13T09:58:47;6.68;;;1.80;;
25657;SDS011;13517;59.320;18.042;2023-03-13T10:01:19;7.18;;;1.75;;
25657;SDS011;13517;59.320;18.042;2023-03-13T10:04:34;5.93;;;1.70;;
25657;SDS011;13517;59.320;18.042;2023-03-13T10:06:54;4.72;;;1.60;;
25657;SDS011;13517;59.320;18.042;2023-03-13T10:09:21;6.68;;;1.70;;
25657;SDS011;13517;59.320;18.042;2023-03-13T10:11:57;4.95;;;1.80;;
25657;SDS011;13517;59.320;18.042;2023-03-13T10:14:33;2.75;;;1.80;;
25657;SDS011;13517;59.320;18.042;2023-03-13T10:19:44;6.70;;;2.08;;
25657;SDS011;13517;59.320;18.042;2023-03-13T10:22:17;4.35;;;2.00;;
25657;SDS011;13517;59.320;18.042;2023-03-13T10:27:14;8.45;;;1.85;;
25657;SDS011;13517;59.320;18.042;2023-03-13T10:29:40;3.85;;;1.45;;
25657;SDS011;13517;59.320;18.042;2023-03-13T10:32:06;6.35;;;1.58;;
25657;SDS011;13517;59.320;18.042;2023-03-13T10:37:26;6.47;;;1.60;;
25657;SDS011;13517;59.320;18.042;2023-03-13T10:39:53;4.57;;;2.05;;
25657;SDS011;13517;59.320;18.042;2023-03-13T10:42:34;4.88;;;1.77;;
25657;SDS011;13517;59.320;18.042;2023-03-13T10:45:05;3.78;;;1.92;;
25657;SDS011;13517;59.320;18.042;2023-03-13T10:47:35;6.40;;;1.90;;
25657;SDS011;13517;59.320;18.042;2023-03-13T10:50:02;3.17;;;1.98;;
25657;SDS011;13517;59.320;18.042;2023-03-13T10:52:30;2.83;;;1.67;;
25657;SDS011;13517;59.320;18.042;2023-03-13T10:55:06;2.88;;;2.00;;
25657;SDS011;13517;59.320;18.042;2023-03-13T10:57:36;6.45;;;1.77;;
25657;SDS011;13517;59.320;18.042;2023-03-13T11:02:50;3.88;;;2.35;;
25657;SDS011;13517;59.320;18.042;2023-03-13T11:10:56;3.67;;;1.98;;
25657;SDS011;13517;59.320;18.042;2023-03-13T11:13:39;3.42;;;2.10;;
25657;SDS011;13517;59.320;18.042;2023-03-13T11:16:16;4.57;;;2.08;;
25657;SDS011;13517;59.320;18.042;2023-03-13T11:19:00;3.67;;;2.10;;
25657;SDS011;13517;59.320;18.042;2023-03-13T11:30:45;2.95;;;1.55;;
25657;SDS011;13517;59.320;18.042;2023-03-13T11:33:00;4.28;;;1.67;;
25657;SDS011;13517;59.320;18.042;2023-03-13T11:43:31;3.92;;;1.80;;
25657;SDS011;13517;59.320;18.042;2023-03-13T11:54:22;3.63;;;2.30;;
25657;SDS011;13517;59.320;18.042;2023-03-13T12:02:22;6.45;;;2.30;;
25657;SDS011;13517;59.320;18.042;2023-03-13T12:04:56;5.47;;;2.33;;
25657;SDS011;13517;59.320;18.042;2023-03-13T12:07:29;7.82;;;4.13;;
25657;SDS011;13517;59.320;18.042;2023-03-13T12:10:00;5.05;;;2.30;;
25657;SDS011;13517;59.320;18.042;2023-03-13T12:12:37;4.35;;;2.25;;
25657;SDS011;13517;59.320;18.042;2023-03-13T12:15:21;6.47;;;2.40;;
25657;SDS011;13517;59.320;18.042;2023-03-13T12:18:00;5.32;;;2.72;;
25657;SDS011;13517;59.320;18.042;2023-03-13T12:20:37;4.88;;;2.33;;
25657;SDS011;13517;59.320;18.042;2023-03-13T12:26:03;4.97;;;2.60;;
25657;SDS011;13517;59.320;18.042;2023-03-13T12:31:39;8.32;;;2.33;;
25657;SDS011;13517;59.320;18.042;2023-03-13T12:36:47;5.80;;;1.83;;
25657;SDS011;13517;59.320;18.042;2023-03-13T12:39:18;2.97;;;1.90;;
25657;SDS011;13517;59.320;18.042;2023-03-13T12:44:44;3.00;;;2.30;;
25657;SDS011;13517;59.320;18.042;2023-03-13T13:00:24;4.75;;;2.60;;
25657;SDS011;13517;59.320;18.042;2023-03-13T13:03:05;5.57;;;2.47;;
25657;SDS011;13517;59.320;18.042;2023-03-13T13:05:57;5.78;;;2.95;;
25657;SDS011;13517;59.320;18.042;2023-03-13T13:08:36;7.25;;;2.35;;
25657;SDS011;13517;59.320;18.042;2023-03-13T13:13:56;5.10;;;2.90;;
25657;SDS011;13517;59.320;18.042;2023-03-13T13:16:21;5.57;;;2.88;;
25657;SDS011;13517;59.320;18.042;2023-03-13T13:18:47;4.50;;;2.90;;
25657;SDS011;13517;59.320;18.042;2023-03-13T13:21:17;6.32;;;3.58;;
25657;SDS011;13517;59.320;18.042;2023-03-13T13:23:46;3.85;;;2.67;;
25657;SDS011;13517;59.320;18.042;2023-03-13T13:28:58;13.73;;;3.35;;
25657;SDS011;13517;59.320;18.042;2023-03-13T13:37:23;4.53;;;2.83;;
25657;SDS011;13517;59.320;18.042;2023-03-13T13:39:46;5.93;;;2.92;;
25657;SDS011;13517;59.320;18.042;2023-03-13T13:45:17;7.40;;;3.30;;
25657;SDS011;13517;59.320;18.042;2023-03-13T13:47:48;3.53;;;2.78;;
25657;SDS011;13517;59.320;18.042;2023-03-13T13:50:21;9.15;;;3.28;;
25657;SDS011;13517;59.320;18.042;2023-03-13T13:52:51;6.38;;;3.10;;
25657;SDS011;13517;59.320;18.042;2023-03-13T13:57:46;7.90;;;3.08;;
25657;SDS011;13517;59.320;18.042;2023-03-13T14:02:49;6.78;;;2.60;;
25657;SDS011;13517;59.320;18.042;2023-03-13T14:05:17;3.70;;;2.60;;
25657;SDS011;13517;59.320;18.042;2023-03-13T14:07:47;5.30;;;2.53;;
25657;SDS011;13517;59.320;18.042;2023-03-13T14:10:27;5.95;;;3.00;;
25657;SDS011;13517;59.320;18.042;2023-03-13T14:12:57;5.13;;;3.38;;
25657;SDS011;13517;59.320;18.042;2023-03-13T14:20:28;5.72;;;2.65;;
25657;SDS011;13517;59.320;18.042;2023-03-13T14:22:58;6.97;;;2.70;;
25657;SDS011;13517;59.320;18.042;2023-03-13T14:25:26;4.50;;;2.67;;
25657;SDS011;13517;59.320;18.042;2023-03-13T14:27:54;5.70;;;3.13;;
25657;SDS011;13517;59.320;18.042;2023-03-13T14:30:20;4.32;;;2.67;;
25657;SDS011;13517;59.320;18.042;2023-03-13T14:32:46;6.28;;;2.80;;
25657;SDS011;13517;59.320;18.042;2023-03-13T14:35:14;8.52;;;2.50;;
25657;SDS011;13517;59.320;18.042;2023-03-13T14:40:29;4.68;;;2.95;;
25657;SDS011;13517;59.320;18.042;2023-03-13T14:42:59;5.53;;;2.40;;
25657;SDS011;13517;59.320;18.042;2023-03-13T14:45:30;5.28;;;2.60;;
25657;SDS011;13517;59.320;18.042;2023-03-13T14:48:04;7.63;;;2.88;;
25657;SDS011;13517;59.320;18.042;2023-03-13T14:50:41;4.35;;;2.72;;
25657;SDS011;13517;59.320;18.042;2023-03-13T14:53:11;4.15;;;2.70;;
25657;SDS011;13517;59.320;18.042;2023-03-13T14:55:47;4.50;;;2.67;;
25657;SDS011;13517;59.320;18.042;2023-03-13T15:00:45;5.85;;;2.35;;
25657;SDS011;13517;59.320;18.042;2023-03-13T15:05:46;6.72;;;2.22;;
25657;SDS011;13517;59.320;18.042;2023-03-13T15:08:13;4.93;;;2.53;;
25657;SDS011;13517;59.320;18.042;2023-03-13T15:10:40;4.35;;;2.08;;
25657;SDS011;13517;59.320;18.042;2023-03-13T15:13:16;5.47;;;2.40;;
25657;SDS011;13517;59.320;18.042;2023-03-13T15:15:48;10.85;;;2.63;;
25657;SDS011;13517;59.320;18.042;2023-03-13T15:18:24;6.55;;;2.40;;
25657;SDS011;13517;59.320;18.042;2023-03-13T15:23:48;7.00;;;2.63;;
25657;SDS011;13517;59.320;18.042;2023-03-13T15:26:15;6.13;;;2.55;;
25657;SDS011;13517;59.320;18.042;2023-03-13T15:28:41;11.13;;;2.65;;
25657;SDS011;13517;59.320;18.042;2023-03-13T15:31:08;7.95;;;2.78;;
25657;SDS011;13517;59.320;18.042;2023-03-13T15:33:35;4.75;;;2.58;;
25657;SDS011;13517;59.320;18.042;2023-03-13T15:36:01;5.55;;;2.50;;
25657;SDS011;13517;59.320;18.042;2023-03-13T15:38:27;4.22;;;2.70;;
25657;SDS011;13517;59.320;18.042;2023-03-13T15:40:52;7.88;;;2.63;;
25657;SDS011;13517;59.320;18.042;2023-03-13T15:43:18;7.82;;;3.10;;
25657;SDS011;13517;59.320;18.042;2023-03-13T15:45:45;6.28;;;2.50;;
25657;SDS011;13517;59.320;18.042;2023-03-13T15:50:49;7.72;;;3.03;;
25657;SDS011;13517;59.320;18.042;2023-03-13T15:53:16;8.52;;;3.40;;
25657;SDS011;13517;59.320;18.042;2023-03-13T15:58:16;3.75;;;2.13;;
25657;SDS011;13517;59.320;18.042;2023-03-13T16:00:42;6.22;;;3.05;;
25657;SDS011;13517;59.320;18.042;2023-03-13T16:03:19;6.47;;;2.78;;
25657;SDS011;13517;59.320;18.042;2023-03-13T16:05:49;3.88;;;2.28;;
25657;SDS011;13517;59.320;18.042;2023-03-13T16:08:16;3.85;;;1.95;;
25657;SDS011;13517;59.320;18.042;2023-03-13T16:10:43;5.63;;;2.70;;
25657;SDS011;13517;59.320;18.042;2023-03-13T16:13:09;7.32;;;2.40;;
25657;SDS011;13517;59.320;18.042;2023-03-13T16:15:35;5.22;;;2.40;;
25657;SDS011;13517;59.320;18.042;2023-03-13T16:18:01;3.30;;;2.28;;
25657;SDS011;13517;59.320;18.042;2023-03-13T16:20:26;4.53;;;2.50;;
25657;SDS011;13517;59.320;18.042;2023-03-13T16:22:53;10.95;;;2.35;;
25657;SDS011;13517;59.320;18.042;2023-03-13T16:25:19;8.48;;;2.30;;
25657;SDS011;13517;59.320;18.042;2023-03-13T16:27:45;6.50;;;2.30;;
25657;SDS011;13517;59.320;18.042;2023-03-13T16:30:17;7.95;;;2.58;;
25657;SDS011;13517;59.320;18.042;2023-03-13T16:32:46;6.20;;;2.60;;
25657;SDS011;13517;59.320;18.042;2023-03-13T16:35:12;7.93;;;2.70;;
25657;SDS011;13517;59.320;18.042;2023-03-13T16:37:38;5.80;;;3.00;;
25657;SDS011;13517;59.320;18.042;2023-03-13T16:40:10;8.23;;;2.47;;
25657;SDS011;13517;59.320;18.042;2023-03-13T16:42:37;7.00;;;3.00;;
25657;SDS011;13517;59.320;18.042;2023-03-13T16:45:02;11.63;;;3.05;;